ストックホルム/アーランダ の空港の天気 - METARとTAF

ストックホルム・アーランダ空港 ( ESSA / ARN ) - スウェーデン ストックホルム
飛行場実況気象(Metar)
観測時間07/07 13:50 CEST (07/07 11:50 UTC)
風向・風速西南西 8m/s
視程10km以上
天気現象
少しの雲 雲底高度 1430m
全天の4割程度の雲 雲底高度 1860m
気温16℃
湿度51%
気圧1003hPa
METARESSA 071150Z 24015KT 9999 FEW047 SCT061 16/06 Q1003 NOSIG
過去の天気等 Google飛行場航空写真 Wunderground天気予報

過去48時間のMETAR

飛行場予報(TAF)
発表時間: 7/07 13:30 CEST (7/07 11:30 UTC)
予報対象時間: 7日14時 CEST ~ 8日14時 CEST
風向・風速西 7m/s
視程10km以上
全天の4割程度の雲 雲底高度 1220m
7日14時 CEST から 確率 40% で
全天の4割程度の塔状積雲 雲底高度 1220m
7日17時 CEST から 確率 40% で
天気現象しゅう雨
全天の8割程度の積乱雲 雲底高度 1370m
7日20時 CEST ~ 7日22時 CEST に徐々に
風向・風速南南西 3m/s
8日11時 CEST ~ 8日14時 CEST に一時的に
天気現象しゅう雨
全天の8割程度の積乱雲 雲底高度 910m
8日11時 CEST から 確率 40% で
天気現象雷雨
TAF ESSA 071130Z 0712/0812 26014KT 9999 SCT040
PROB40 0712/0715 SCT040TCU
PROB40 0715/0724 SHRA BKN045CB
BECMG 0718/0720 20006KT
TEMPO 0809/0812 SHRA BKN030CB
PROB40 0809/0812 TSRA